KSBM

Sheboygan County Memorial Airport

Sheboygan, Wisconsin, USA
METAR KSBM 210453Z AUTO 11011KT 7SM -RA SCT025 BKN090 OVC110 19/17 A2988 RMK AO2 SLP114 P0014 T01890172 TSNO
Observed Flight Rules
Aug-21 @ 04:53 UTC (9 hours ago) Visual Flight Rules
Wind Visibility Clouds Conditions
110° at 11 knots 7 miles
  • Scattered at 2,500' AGL
  • Broken at 9,000' AGL
  • Overcast at 11,000' AGL
  • Light Rain
Temperatures Readings Precipitation
Current 19°C / 66°F
Dewpoint 17°C / 63°F
Humidity 88%
Altimeter 29.88" Hg
Pressure 1011.4 hPa
Elevation 232
Current Rain 0.14
METAR KSBM 210453Z AUTO 11011KT 7SM -RA SCT025 BKN090 OVC110 19/17 A2988 RMK AO2 SLP114 P0014 T01890172 TSNO
Observed Flight Rules
Aug-21 @ 04:53 UTC
(9 hours ago)
VFR
Wind Visibility
110° at 11 knots 7 miles
Clouds
  • Scattered at 2,500' AGL
  • Broken at 9,000' AGL
  • Overcast at 11,000' AGL
Conditions
  • Light Rain
Temperature Dewpoint
19°C / 66°F 17°C / 63°F
Humidity Altimeter Pressure
88% 29.88" Hg 1011.4 hPa
Current Rain
0.14